Time;durP1;ratioP1;P1;durP2;ratioP2;P2;SDS_P1;SDS_P2;PMS_P1;PMS_P2;Temp;Humidity;BMP_temperature;BMP_pressure;BME280_temperature;BME280_humidity;BME280_pressure;Samples;Min_cycle;Max_cycle;Signal;HPM_P1;HPM_P2
2023/06/01 00:00:09;;;;;;;13.90;8.63;;;;;;;13.89;82.02;102095.50;5278827;28;20028;-70
2023/06/01 00:02:41;;;;;;;14.48;8.52;;;;;;;13.67;82.66;102089.53;5263687;28;20040;-68
2023/06/01 00:05:12;;;;;;;12.80;8.60;;;;;;;13.70;82.81;102089.50;5263613;28;20432;-70
2023/06/01 00:07:43;;;;;;;14.57;8.67;;;;;;;13.70;82.84;102101.72;5263572;28;20055;-69
2023/06/01 00:10:15;;;;;;;12.07;9.10;;;;;;;13.67;83.77;102093.00;5261984;28;20086;-69
2023/06/01 00:12:46;;;;;;;14.73;7.97;;;;;;;13.65;83.82;102092.16;5263573;28;20068;-68
2023/06/01 00:15:17;;;;;;;15.43;8.60;;;;;;;13.41;83.98;102098.38;5263318;28;20029;-68
2023/06/01 00:17:51;;;;;;;16.67;8.87;;;;;;;13.53;83.92;102094.81;5263160;28;20036;-69
2023/06/01 00:20:24;;;;;;;13.20;9.38;;;;;;;13.22;85.12;102091.41;5262977;28;20075;-68
2023/06/01 00:22:55;;;;;;;13.02;8.63;;;;;;;13.31;85.16;102087.03;5263021;28;20128;-69
2023/06/01 00:25:26;;;;;;;11.03;8.47;;;;;;;13.12;85.94;102080.97;5262909;28;20112;-70
2023/06/01 00:27:58;;;;;;;10.40;8.80;;;;;;;13.12;86.25;102085.31;5263126;28;20037;-68
2023/06/01 00:30:29;;;;;;;17.07;9.20;;;;;;;12.99;86.62;102092.31;5262632;28;20040;-70
2023/06/01 00:33:01;;;;;;;16.97;9.67;;;;;;;12.99;86.85;102094.06;5263083;28;20025;-68
2023/06/01 00:35:32;;;;;;;13.20;9.80;;;;;;;12.89;87.17;102091.47;5262781;28;20048;-69
2023/06/01 00:38:04;;;;;;;16.00;9.87;;;;;;;12.69;87.14;102095.88;5262550;28;20028;-69
2023/06/01 00:40:36;;;;;;;21.83;11.17;;;;;;;12.69;87.40;102093.25;5262757;28;20120;-69
2023/06/01 00:43:07;;;;;;;20.85;11.05;;;;;;;12.62;87.87;102092.34;5261400;28;20032;-69
2023/06/01 00:45:39;;;;;;;13.77;10.40;;;;;;;12.59;88.35;102092.38;5262804;28;20456;-69
2023/06/01 00:48:12;;;;;;;17.03;10.63;;;;;;;12.54;88.48;102089.75;5262809;28;20025;-70
2023/06/01 00:50:44;;;;;;;14.38;10.32;;;;;;;12.44;88.46;102092.38;5262732;28;20025;-69
2023/06/01 00:53:18;;;;;;;16.65;10.75;;;;;;;12.47;88.54;102084.53;5262627;28;20542;-69
2023/06/01 00:55:50;;;;;;;17.73;10.38;;;;;;;12.32;89.05;102085.41;5262646;28;20064;-69
2023/06/01 00:58:21;;;;;;;13.37;10.57;;;;;;;12.21;89.45;102091.47;5262848;28;20174;-69
2023/06/01 01:00:53;;;;;;;21.53;11.73;;;;;;;12.15;89.73;102087.97;5262853;28;20025;-69
2023/06/01 01:03:25;;;;;;;12.13;10.60;;;;;;;12.09;89.78;102101.03;5262158;28;20029;-70
2023/06/01 01:06:22;;;;;;;15.05;10.93;;;;;;;12.05;90.41;102102.78;5262490;28;20025;-70
2023/06/01 01:09:10;;;;;;;17.25;11.48;;;;;;;11.95;90.93;102103.63;5262533;28;20518;-69
2023/06/01 01:11:50;;;;;;;16.70;10.40;;;;;;;11.90;91.06;102103.59;5262156;28;20052;-70
2023/06/01 01:14:27;;;;;;;17.77;12.02;;;;;;;11.83;91.55;102107.91;5262488;28;20021;-69
2023/06/01 01:17:17;;;;;;;15.88;11.95;;;;;;;11.75;91.98;102106.13;5262075;28;20043;-69
2023/06/01 01:19:56;;;;;;;18.40;12.55;;;;;;;11.76;92.97;102102.66;5246855;28;20437;-69
2023/06/01 01:22:30;;;;;;;23.40;11.98;;;;;;;11.85;93.24;102097.47;5241381;28;20101;-70
2023/06/01 01:25:18;;;;;;;15.40;12.55;;;;;;;11.65;92.89;102102.63;5239889;28;20026;-70
2023/06/01 01:27:49;;;;;;;15.38;12.13;;;;;;;11.47;92.65;102098.19;5241559;28;20026;-70
2023/06/01 01:30:26;;;;;;;21.53;12.70;;;;;;;11.52;93.37;102103.44;5241175;28;20030;-69
2023/06/01 01:32:59;;;;;;;17.88;12.23;;;;;;;11.45;93.88;102108.63;5241319;28;20021;-69
2023/06/01 01:35:32;;;;;;;16.35;13.27;;;;;;;11.50;94.65;102109.50;5240989;28;20111;-70
2023/06/01 01:38:03;;;;;;;19.45;14.13;;;;;;;11.23;94.05;102110.25;5241221;28;20473;-69
2023/06/01 01:40:34;;;;;;;18.47;12.90;;;;;;;11.30;94.30;102106.81;5240811;28;20022;-67
2023/06/01 01:43:06;;;;;;;18.90;13.87;;;;;;;11.26;94.16;102115.50;5277013;28;20039;-68
2023/06/01 01:45:38;;;;;;;16.13;12.77;;;;;;;11.17;94.59;102120.66;5245369;28;20017;-69
2023/06/01 01:48:15;;;;;;;22.53;15.00;;;;;;;11.12;94.46;102117.13;5245343;28;20041;-69
2023/06/01 01:50:55;;;;;;;18.98;14.60;;;;;;;11.02;95.36;102115.34;5245891;28;20029;-68
2023/06/01 01:53:29;;;;;;;22.63;14.65;;;;;;;10.91;95.68;102123.09;5244977;28;20021;-69
2023/06/01 01:56:01;;;;;;;17.25;14.18;;;;;;;10.89;95.57;102117.00;5244557;28;20136;-68
2023/06/01 01:58:33;;;;;;;18.10;13.70;;;;;;;10.77;95.94;102116.03;5245311;28;20029;-69
2023/06/01 02:01:05;;;;;;;19.23;15.30;;;;;;;10.77;96.40;102113.44;5246279;28;20461;-69
2023/06/01 02:03:37;;;;;;;18.23;15.18;;;;;;;10.69;97.03;102114.22;5243049;28;20104;-69
2023/06/01 02:06:08;;;;;;;19.10;15.47;;;;;;;10.65;97.17;102115.94;5244847;28;20104;-70
2023/06/01 02:08:40;;;;;;;24.40;15.73;;;;;;;10.85;97.44;102113.50;5245022;28;20029;-69
2023/06/01 02:11:11;;;;;;;20.90;16.10;;;;;;;10.89;96.92;102120.47;5244547;28;20030;-68
2023/06/01 02:13:42;;;;;;;25.27;16.33;;;;;;;10.79;96.76;102109.94;5244879;28;20026;-69
2023/06/01 02:16:15;;;;;;;20.93;16.13;;;;;;;10.69;96.43;102111.59;5244788;28;20025;-69
2023/06/01 02:18:47;;;;;;;16.85;14.57;;;;;;;10.67;96.23;102108.97;5244632;28;20049;-69
2023/06/01 02:21:19;;;;;;;22.13;16.27;;;;;;;10.61;96.34;102110.66;5244821;28;20084;-69
2023/06/01 02:23:50;;;;;;;20.20;16.27;;;;;;;10.62;96.78;102115.03;5244574;28;20028;-69
2023/06/01 02:26:22;;;;;;;20.87;15.33;;;;;;;10.63;96.64;102108.97;5244574;28;20540;-68
2023/06/01 02:28:53;;;;;;;23.27;16.47;;;;;;;10.50;96.65;102116.69;5244633;28;20033;-69
2023/06/01 02:31:25;;;;;;;18.13;14.80;;;;;;;10.54;96.37;102107.16;5243220;28;20037;-69
2023/06/01 02:33:56;;;;;;;19.00;14.03;;;;;;;10.58;95.68;102112.41;5244476;28;20361;-69
2023/06/01 02:36:28;;;;;;;20.07;15.33;;;;;;;10.66;96.17;102117.69;5244446;28;20049;-69
2023/06/01 02:39:00;;;;;;;21.15;14.50;;;;;;;10.65;95.47;102117.69;5244232;28;20114;-69
2023/06/01 02:41:31;;;;;;;21.43;14.03;;;;;;;10.58;94.87;102111.53;5243765;28;20034;-69
2023/06/01 02:44:03;;;;;;;22.27;13.80;;;;;;;10.56;94.67;102111.53;5244173;28;20484;-69
2023/06/01 02:46:34;;;;;;;21.80;14.63;;;;;;;10.63;94.91;102114.19;5244254;28;20057;-70
2023/06/01 02:49:06;;;;;;;20.60;13.77;;;;;;;10.51;95.03;102108.00;5244148;28;20079;-70
2023/06/01 02:51:37;;;;;;;16.73;13.10;;;;;;;10.53;94.94;102108.03;5244176;28;20042;-69
2023/06/01 02:54:08;;;;;;;14.63;12.50;;;;;;;10.41;95.40;102103.56;5243526;28;20033;-68
2023/06/01 02:56:40;;;;;;;17.07;12.77;;;;;;;10.49;95.16;102104.50;5244056;28;20476;-68
2023/06/01 02:59:11;;;;;;;19.07;12.60;;;;;;;10.48;95.41;102107.97;5243861;28;20433;-69
2023/06/01 03:01:42;;;;;;;14.07;12.40;;;;;;;10.44;94.82;102110.53;5244123;28;20457;-69
2023/06/01 03:04:14;;;;;;;15.93;12.43;;;;;;;10.54;95.20;102112.38;5243901;28;20029;-68
2023/06/01 03:06:46;;;;;;;16.40;13.00;;;;;;;10.69;95.86;102114.22;5243826;28;20029;-69
2023/06/01 03:09:17;;;;;;;15.00;12.17;;;;;;;10.55;95.00;102117.59;5243552;28;20090;-68
2023/06/01 03:11:48;;;;;;;17.93;11.90;;;;;;;10.66;95.20;102108.97;5243409;28;20056;-69
2023/06/01 03:14:20;;;;;;;14.67;11.53;;;;;;;10.55;94.71;102112.38;5243689;28;20056;-70
2023/06/01 03:16:51;;;;;;;16.27;11.60;;;;;;;10.70;95.06;102116.84;5243533;28;20167;-69
2023/06/01 03:19:22;;;;;;;16.60;11.73;;;;;;;10.49;94.18;102114.91;5243274;28;20416;-67
2023/06/01 03:21:54;;;;;;;13.33;11.80;;;;;;;10.60;95.47;102116.78;5243568;28;20030;-69
2023/06/01 03:24:27;;;;;;;13.53;10.63;;;;;;;10.53;95.08;102119.31;5243511;28;20033;-70
2023/06/01 03:26:58;;;;;;;15.02;11.00;;;;;;;10.51;95.41;102117.53;5243054;28;20074;-69
2023/06/01 03:29:30;;;;;;;11.83;10.30;;;;;;;10.44;94.61;102119.22;5243447;28;20380;-70
2023/06/01 03:32:01;;;;;;;16.67;10.43;;;;;;;10.47;94.76;102110.56;5241930;28;20056;-69
2023/06/01 03:34:36;;;;;;;16.00;10.40;;;;;;;10.42;94.69;102117.44;5243287;28;20429;-69
2023/06/01 03:37:07;;;;;;;13.32;10.50;;;;;;;10.40;94.61;102113.13;5242923;28;20112;-69
2023/06/01 03:39:39;;;;;;;14.77;10.53;;;;;;;10.39;94.44;102118.31;5243245;28;20147;-69
2023/06/01 03:42:11;;;;;;;16.30;10.27;;;;;;;10.48;94.71;102117.50;5242445;28;20445;-69
2023/06/01 03:44:42;;;;;;;13.27;9.90;;;;;;;10.55;94.40;102120.19;5241696;28;20128;-69
2023/06/01 03:47:14;;;;;;;15.93;10.03;;;;;;;10.36;93.94;102120.91;5242984;28;20464;-70
2023/06/01 03:49:46;;;;;;;16.50;11.02;;;;;;;10.39;93.97;102115.72;5242870;28;20448;-69
2023/06/01 03:52:18;;;;;;;12.07;9.30;;;;;;;10.45;94.04;102126.19;5242898;28;20022;-69
2023/06/01 03:54:49;;;;;;;15.57;10.10;;;;;;;10.58;93.80;102122.84;5241717;28;20045;-69
2023/06/01 03:57:21;;;;;;;14.73;9.57;;;;;;;10.50;94.27;102132.31;5242668;28;20029;-70
2023/06/01 03:59:52;;;;;;;11.37;8.77;;;;;;;10.45;93.80;102126.19;5242676;28;20453;-69
2023/06/01 04:02:24;;;;;;;15.10;9.47;;;;;;;10.59;93.86;102131.53;5241673;28;20411;-68
2023/06/01 04:04:55;;;;;;;16.37;8.80;;;;;;;10.47;93.11;102126.22;5241815;28;20143;-68
2023/06/01 04:07:27;;;;;;;15.37;8.80;;;;;;;10.52;92.83;102125.38;5242696;28;20049;-68
2023/06/01 04:09:58;;;;;;;12.87;9.00;;;;;;;10.49;93.07;102130.56;5242419;28;20548;-69
2023/06/01 04:12:30;;;;;;;12.50;8.97;;;;;;;10.63;92.89;102128.09;5242284;28;20365;-69
2023/06/01 04:15:01;;;;;;;12.97;9.37;;;;;;;10.74;93.51;102125.59;5242646;28;20086;-69
2023/06/01 04:17:35;;;;;;;14.63;9.43;;;;;;;10.52;92.42;102134.94;5242490;28;20029;-68
2023/06/01 04:20:10;;;;;;;13.18;8.60;;;;;;;10.61;92.99;102135.03;5242208;28;20057;-70
2023/06/01 04:22:43;;;;;;;15.70;9.52;;;;;;;10.50;92.49;102134.06;5242415;28;20032;-68
2023/06/01 04:25:18;;;;;;;14.75;9.05;;;;;;;10.55;92.78;102135.84;5242421;28;20096;-67
2023/06/01 04:27:54;;;;;;;12.50;8.25;;;;;;;10.34;92.85;102120.00;5242318;28;20093;-68
2023/06/01 04:30:25;;;;;;;13.43;9.38;;;;;;;10.46;92.67;102122.72;5241841;28;20064;-68
2023/06/01 04:32:57;;;;;;;13.47;10.03;;;;;;;10.53;92.74;102134.09;5240851;28;20480;-66
2023/06/01 04:35:28;;;;;;;17.10;10.60;;;;;;;10.53;92.52;102127.13;5274580;28;20029;-66
2023/06/01 04:37:59;;;;;;;12.93;8.47;;;;;;;10.52;92.61;102134.94;5242282;28;20022;-68
2023/06/01 04:40:31;;;;;;;16.33;9.17;;;;;;;10.53;92.56;102136.72;5241184;28;20035;-67
2023/06/01 04:43:02;;;;;;;16.43;9.60;;;;;;;10.73;92.74;102144.69;5241805;28;20481;-67
2023/06/01 04:45:34;;;;;;;11.60;9.70;;;;;;;10.76;92.13;102142.09;5241671;28;20033;-66
2023/06/01 04:48:09;;;;;;;10.83;8.73;;;;;;;10.87;91.94;102147.44;5241800;28;20021;-67
2023/06/01 04:50:41;;;;;;;11.52;9.07;;;;;;;11.09;92.04;102151.03;5241819;28;20442;-68
2023/06/01 04:53:12;;;;;;;12.63;9.20;;;;;;;10.97;89.68;102144.00;5241768;28;20060;-68
2023/06/01 04:55:44;;;;;;;14.40;9.57;;;;;;;10.83;89.14;102140.41;5241658;28;20113;-68
2023/06/01 04:58:15;;;;;;;12.10;10.53;;;;;;;10.92;90.52;102146.59;5241444;28;20059;-68
2023/06/01 05:00:47;;;;;;;15.97;10.30;;;;;;;10.84;89.47;102142.19;5240362;28;20025;-68
2023/06/01 05:03:19;;;;;;;13.98;9.88;;;;;;;10.84;89.85;102142.19;5241394;28;20022;-67
2023/06/01 05:05:50;;;;;;;13.43;10.13;;;;;;;10.92;90.01;102143.09;5241876;28;20037;-68
2023/06/01 05:08:22;;;;;;;18.13;10.93;;;;;;;10.97;89.46;102136.19;5241666;28;20028;-68
2023/06/01 05:10:53;;;;;;;14.30;11.43;;;;;;;11.01;89.38;102134.47;5240161;28;20026;-67
2023/06/01 05:13:25;;;;;;;13.57;10.10;;;;;;;10.84;88.88;102136.97;5241670;28;20360;-68
2023/06/01 05:15:56;;;;;;;13.27;10.53;;;;;;;10.85;88.74;102136.97;5241209;28;20125;-67
2023/06/01 05:18:27;;;;;;;17.00;10.87;;;;;;;10.98;89.20;102139.66;5239975;28;20448;-67
2023/06/01 05:20:59;;;;;;;16.80;11.20;;;;;;;11.03;88.18;102143.16;5241446;28;20103;-68
2023/06/01 05:23:32;;;;;;;14.95;9.90;;;;;;;11.10;87.96;102143.22;5241419;28;20022;-68
2023/06/01 05:26:03;;;;;;;14.55;11.63;;;;;;;11.23;87.44;102141.56;5241282;28;20029;-68
2023/06/01 05:28:35;;;;;;;14.53;11.33;;;;;;;11.17;87.10;102144.13;5241218;28;20060;-67
2023/06/01 05:31:07;;;;;;;16.10;10.63;;;;;;;11.18;86.74;102138.06;5241302;28;20029;-68
2023/06/01 05:33:38;;;;;;;15.10;10.60;;;;;;;11.29;87.29;102144.22;5241478;28;20037;-68
2023/06/01 05:36:10;;;;;;;14.63;10.50;;;;;;;11.37;86.74;102128.59;5241177;28;20802;-68
2023/06/01 05:38:41;;;;;;;15.37;10.50;;;;;;;11.56;86.55;102136.53;5241196;28;20021;-67
2023/06/01 05:41:12;;;;;;;13.90;10.73;;;;;;;11.61;85.11;102140.06;5240784;28;20025;-67
2023/06/01 05:43:44;;;;;;;15.90;11.23;;;;;;;11.57;84.90;102131.31;5241245;28;20025;-68
2023/06/01 05:46:15;;;;;;;18.10;10.70;;;;;;;11.51;84.88;102139.09;5241297;28;20083;-68
2023/06/01 05:48:46;;;;;;;16.30;10.63;;;;;;;11.67;85.28;102138.34;5241311;28;20053;-68
2023/06/01 05:51:18;;;;;;;15.63;10.47;;;;;;;11.66;84.81;102136.56;5241155;28;20079;-68
2023/06/01 05:53:49;;;;;;;16.30;11.10;;;;;;;11.68;84.12;102136.59;5241347;28;20063;-68
2023/06/01 05:56:21;;;;;;;13.67;11.37;;;;;;;11.83;84.92;102131.44;5240951;28;20029;-68
2023/06/01 05:58:53;;;;;;;18.67;11.33;;;;;;;11.52;83.62;102143.47;5239804;28;20080;-68
2023/06/01 06:01:24;;;;;;;15.93;10.75;;;;;;;11.30;84.58;102145.97;5241348;28;20032;-68
2023/06/01 06:03:57;;;;;;;15.73;11.53;;;;;;;11.16;85.45;102139.78;5241208;28;20033;-67
2023/06/01 06:06:28;;;;;;;;;;;;;;;11.32;85.11;102143.38;5241673;28;20108;-66
2023/06/01 06:08:59;;;;;;;14.85;10.45;;;;;;;11.37;86.43;102139.06;5240828;28;20012;-68
2023/06/01 06:11:31;;;;;;;15.30;10.70;;;;;;;11.60;87.39;102139.16;5239571;28;20108;-68
2023/06/01 06:14:02;;;;;;;14.43;11.20;;;;;;;11.76;85.59;102149.69;5241139;28;20477;-67
2023/06/01 06:16:34;;;;;;;17.03;11.03;;;;;;;11.75;85.37;102137.47;5240809;28;20038;-67
2023/06/01 06:19:05;;;;;;;15.07;10.73;;;;;;;11.60;84.57;102152.22;5241106;28;20063;-68
2023/06/01 06:21:37;;;;;;;19.13;11.23;;;;;;;11.62;84.38;102150.50;5240811;28;20050;-68
2023/06/01 06:24:09;;;;;;;13.23;9.60;;;;;;;11.85;84.39;102153.22;5240790;28;20025;-68
2023/06/01 06:26:40;;;;;;;16.17;10.63;;;;;;;11.89;84.58;102148.84;5241148;28;20036;-67
2023/06/01 06:29:11;;;;;;;16.87;10.40;;;;;;;12.27;84.69;102140.28;5243333;28;20034;-67
2023/06/01 06:31:45;;;;;;;20.97;10.10;;;;;;;12.25;81.24;102151.59;5244811;28;20040;-68
2023/06/01 06:34:16;;;;;;;14.45;10.23;;;;;;;12.38;80.82;102148.13;5244639;28;20025;-68
2023/06/01 06:36:47;;;;;;;18.90;10.87;;;;;;;12.67;81.68;102149.91;5244909;28;20029;-67
2023/06/01 06:39:19;;;;;;;16.20;10.20;;;;;;;12.87;80.73;102148.16;5244298;28;20036;-68
2023/06/01 06:41:50;;;;;;;16.93;10.63;;;;;;;12.85;78.79;102147.31;5244149;28;20033;-67
2023/06/01 06:44:22;;;;;;;16.53;10.47;;;;;;;13.07;79.05;102147.28;5243224;28;20063;-68
2023/06/01 06:46:53;;;;;;;19.37;10.00;;;;;;;13.00;79.24;102145.56;5244295;28;20022;-67
2023/06/01 06:49:25;;;;;;;17.10;10.17;;;;;;;12.95;78.22;102142.94;5244364;28;20088;-67
2023/06/01 06:51:56;;;;;;;14.90;9.77;;;;;;;13.11;78.14;102143.78;5244460;28;20025;-67
2023/06/01 06:54:27;;;;;;;15.37;10.53;;;;;;;13.53;78.53;102147.22;5244345;28;20108;-67
2023/06/01 06:56:59;;;;;;;20.23;11.37;;;;;;;13.57;77.41;102151.59;5244355;28;20052;-67
2023/06/01 06:59:30;;;;;;;14.33;9.43;;;;;;;13.13;74.84;102166.47;5243913;28;20105;-68
2023/06/01 07:02:02;;;;;;;13.17;9.27;;;;;;;13.07;75.83;102161.25;5244254;28;20072;-68
2023/06/01 07:04:33;;;;;;;20.10;10.87;;;;;;;13.17;76.88;102166.47;5244197;28;20113;-67
2023/06/01 07:07:05;;;;;;;14.97;9.17;;;;;;;13.09;75.47;102161.25;5244049;28;20110;-67
2023/06/01 07:09:36;;;;;;;16.67;10.13;;;;;;;12.90;75.05;102157.78;5244077;28;20364;-67
2023/06/01 07:12:08;;;;;;;13.97;10.13;;;;;;;12.76;76.04;102163.88;5243733;28;20480;-67
2023/06/01 07:14:40;;;;;;;15.80;10.20;;;;;;;12.83;76.84;102156.03;5244072;28;20037;-67
2023/06/01 07:17:11;;;;;;;13.53;10.00;;;;;;;12.67;77.18;102160.38;5243903;28;20033;-67
2023/06/01 07:19:42;;;;;;;12.57;10.13;;;;;;;12.64;77.16;102155.13;5243625;28;20227;-68
2023/06/01 07:22:14;;;;;;;18.03;10.37;;;;;;;12.72;77.95;102149.06;5243906;28;20374;-67
2023/06/01 07:24:45;;;;;;;15.10;10.37;;;;;;;12.67;76.75;102152.53;5243498;28;20033;-67
2023/06/01 07:27:17;;;;;;;15.87;10.43;;;;;;;13.01;80.54;102149.91;5243820;28;20061;-67
2023/06/01 07:29:54;;;;;;;17.85;9.93;;;;;;;12.99;76.39;102146.41;5243777;28;20404;-67
2023/06/01 07:32:26;;;;;;;17.27;10.65;;;;;;;13.24;77.84;102148.13;5243746;28;20488;-67
2023/06/01 07:34:57;;;;;;;17.40;11.03;;;;;;;13.23;76.41;102155.97;5275891;28;20038;-67
2023/06/01 07:37:29;;;;;;;15.75;10.80;;;;;;;13.43;77.13;102148.13;5243559;28;20025;-67
2023/06/01 07:40:01;;;;;;;16.67;10.07;;;;;;;13.39;76.05;102157.72;5243279;28;20083;-68
2023/06/01 07:42:32;;;;;;;18.63;10.13;;;;;;;13.74;78.01;102151.50;5243130;28;20032;-67
2023/06/01 07:45:05;;;;;;;16.40;10.67;;;;;;;13.58;74.76;102152.44;5243082;28;20024;-67
2023/06/01 07:47:37;;;;;;;15.82;11.30;;;;;;;13.38;74.31;102147.25;5243063;28;20041;-68
2023/06/01 07:50:08;;;;;;;19.10;10.57;;;;;;;13.50;75.34;102147.22;5243443;28;20060;-69
2023/06/01 07:52:41;;;;;;;13.03;10.17;;;;;;;13.44;75.07;102148.13;5242113;28;20032;-68
2023/06/01 07:55:13;;;;;;;18.65;10.80;;;;;;;13.67;74.64;102155.03;5243257;28;20033;-67
2023/06/01 07:57:44;;;;;;;15.43;10.20;;;;;;;13.79;74.09;102154.09;5243235;28;20036;-68
2023/06/01 08:00:17;;;;;;;17.63;9.87;;;;;;;13.80;72.30;102161.09;5243279;28;20021;-68
2023/06/01 08:02:48;;;;;;;;;;;;;;;14.01;72.08;102153.13;5243148;28;20036;-67
2023/06/01 08:05:20;;;;;;;19.17;10.40;;;;;;;13.66;71.94;102163.75;5243069;28;19909;-68
2023/06/01 08:07:52;;;;;;;16.13;10.20;;;;;;;14.12;75.41;102153.06;5242639;28;20283;-68
2023/06/01 08:10:23;;;;;;;18.42;10.23;;;;;;;13.98;72.52;102152.28;5242663;28;20473;-68
2023/06/01 08:12:57;;;;;;;12.50;9.67;;;;;;;14.23;71.99;102151.25;5242940;28;20040;-67
2023/06/01 08:15:28;;;;;;;16.00;10.98;;;;;;;14.32;70.85;102152.94;5242426;28;20033;-67
2023/06/01 08:18:00;;;;;;;18.20;10.70;;;;;;;14.50;71.12;102148.44;5242557;28;20030;-68
2023/06/01 08:20:31;;;;;;;16.77;10.33;;;;;;;14.77;74.74;102144.78;5242633;28;20060;-67
2023/06/01 08:23:03;;;;;;;15.13;10.33;;;;;;;14.88;68.54;102148.19;5242635;28;20128;-67
2023/06/01 08:25:34;;;;;;;12.83;9.27;;;;;;;14.86;67.47;102147.31;5242601;28;20068;-68
2023/06/01 08:28:06;;;;;;;11.63;9.67;;;;;;;14.98;68.04;102155.97;5242640;28;20028;-68
2023/06/01 08:30:37;;;;;;;12.77;10.33;;;;;;;14.82;66.61;102157.88;5242564;28;20030;-68
2023/06/01 08:33:09;;;;;;;14.40;9.87;;;;;;;14.99;67.79;102147.19;5242291;28;20033;-68
2023/06/01 08:35:40;;;;;;;16.33;10.20;;;;;;;15.06;69.78;102149.75;5242492;28;20102;-67
2023/06/01 08:38:12;;;;;;;20.57;11.87;;;;;;;15.17;67.79;102160.16;5242574;28;20029;-68
2023/06/01 08:40:43;;;;;;;18.57;9.97;;;;;;;15.32;68.53;102148.63;5241875;28;20026;-67
2023/06/01 08:43:27;;;;;;;13.07;9.90;;;;;;;15.31;68.66;102137.25;5242227;28;20029;-68
2023/06/01 08:46:00;;;;;;;15.23;10.93;;;;;;;15.54;67.24;102141.38;5242346;28;20264;-67
2023/06/01 08:48:33;;;;;;;15.85;10.23;;;;;;;16.02;68.65;102136.41;5242457;28;20021;-67
2023/06/01 08:51:04;;;;;;;16.40;10.15;;;;;;;16.16;66.50;102141.44;5241448;28;20564;-67
2023/06/01 08:53:38;;;;;;;14.85;10.27;;;;;;;16.03;64.92;102139.88;5242150;28;20037;-67
2023/06/01 08:56:10;;;;;;;16.38;9.82;;;;;;;16.06;64.65;102136.34;5242112;28;20039;-68
2023/06/01 08:58:43;;;;;;;14.70;11.07;;;;;;;15.84;63.25;102140.16;5242075;28;20025;-68
2023/06/01 09:01:21;;;;;;;17.63;11.95;;;;;;;15.80;66.01;102129.69;5242060;28;20021;-67
2023/06/01 09:03:52;;;;;;;18.67;10.65;;;;;;;16.00;68.00;102126.78;5242002;28;20034;-69
2023/06/01 09:06:23;;;;;;;18.27;10.57;;;;;;;16.14;63.75;102137.13;5240927;28;20079;-68
2023/06/01 09:08:55;;;;;;;13.93;9.70;;;;;;;15.81;61.49;102137.56;5242043;28;20083;-67
2023/06/01 09:11:26;;;;;;;15.30;10.50;;;;;;;16.08;63.29;102132.78;5241344;28;20029;-68
2023/06/01 09:13:58;;;;;;;15.73;11.00;;;;;;;15.92;62.55;102123.38;5241844;28;20057;-67
2023/06/01 09:16:39;;;;;;;17.00;10.33;;;;;;;16.43;63.93;102125.28;5241966;28;20025;-68
2023/06/01 09:19:10;;;;;;;17.35;11.25;;;;;;;16.46;63.32;102114.72;5241346;28;20230;-69
2023/06/01 09:22:00;;;;;;;16.60;11.50;;;;;;;16.44;60.89;102105.94;5240255;28;20511;-68
2023/06/01 09:24:31;;;;;;;16.05;11.18;;;;;;;16.52;61.90;102109.34;5241867;28;20029;-68
2023/06/01 09:27:03;;;;;;;14.10;11.13;;;;;;;16.78;62.00;102116.81;5241723;28;20036;-68
2023/06/01 09:29:35;;;;;;;22.50;11.38;;;;;;;16.54;58.80;102112.81;5240441;28;20380;-68
2023/06/01 09:32:06;;;;;;;16.93;10.93;;;;;;;16.81;60.27;102102.69;5241696;28;20032;-68
2023/06/01 09:34:44;;;;;;;14.90;11.50;;;;;;;16.68;60.87;102110.81;5241544;28;20037;-68
2023/06/01 09:37:16;;;;;;;15.75;11.07;;;;;;;16.67;60.02;102109.06;5241663;28;20028;-68
2023/06/01 09:39:48;;;;;;;17.88;11.20;;;;;;;16.95;59.66;102101.59;5241265;28;20428;-69
2023/06/01 09:42:31;;;;;;;16.37;12.27;;;;;;;17.02;60.49;102088.31;5241277;28;20026;-68
2023/06/01 09:45:37;;;;;;;19.08;11.43;;;;;;;17.59;60.11;102093.28;5241700;28;20076;-68
2023/06/01 09:48:20;;;;;;;17.50;11.23;;;;;;;17.62;59.10;102090.59;5239919;28;20109;-69
2023/06/01 09:50:52;;;;;;;21.50;13.40;;;;;;;17.42;56.83;102091.03;5241024;28;20349;-67
2023/06/01 09:53:24;;;;;;;16.67;11.20;;;;;;;17.63;56.98;102094.13;5241846;28;20025;-67
2023/06/01 09:55:57;;;;;;;;;;;;;;;17.82;55.55;102095.44;5241614;28;20409;-68
2023/06/01 09:58:29;;;;;;;;;;;;;;;18.13;58.43;102093.88;5241754;28;19909;-66
2023/06/01 10:01:03;;;;;;;15.88;11.27;;;;;;;18.46;53.43;102092.22;5241453;28;19960;-68
2023/06/01 10:03:41;;;;;;;16.83;10.85;;;;;;;19.04;51.11;102094.28;5242567;28;20342;-68
2023/06/01 10:06:14;;;;;;;18.67;10.55;;;;;;;19.96;49.94;102086.28;5244113;28;20052;-67
2023/06/01 10:08:47;;;;;;;14.73;10.70;;;;;;;20.27;46.67;102081.81;5245409;28;20453;-67
2023/06/01 10:11:18;;;;;;;14.98;10.35;;;;;;;20.90;46.74;102087.66;5245199;28;20132;-68
2023/06/01 10:13:50;;;;;;;17.57;10.13;;;;;;;22.09;47.14;102078.75;5245344;28;20037;-67
2023/06/01 10:16:21;;;;;;;18.65;10.55;;;;;;;22.73;42.73;102084.94;5245218;28;20032;-67
2023/06/01 10:18:54;;;;;;;18.15;10.77;;;;;;;23.24;41.79;102082.75;5245231;28;20032;-68
2023/06/01 10:21:27;;;;;;;14.82;10.82;;;;;;;23.38;38.49;102080.31;5244711;28;20067;-69
2023/06/01 10:23:58;;;;;;;16.55;11.48;;;;;;;22.64;39.62;102090.69;5244942;28;20068;-68
2023/06/01 10:26:36;;;;;;;17.27;11.77;;;;;;;22.55;38.84;102079.50;5245026;28;20072;-67
2023/06/01 10:29:09;;;;;;;16.25;10.65;;;;;;;23.85;40.85;102084.34;5276212;28;20060;-70
2023/06/01 10:31:42;;;;;;;16.60;11.23;;;;;;;23.24;39.23;102072.94;5243786;28;20393;-68
2023/06/01 10:34:14;;;;;;;21.02;11.65;;;;;;;23.14;38.87;102074.31;5244839;28;20025;-67
2023/06/01 10:36:51;;;;;;;15.85;11.65;;;;;;;22.55;39.74;102070.66;5244795;28;20039;-69
2023/06/01 10:39:26;;;;;;;15.50;10.70;;;;;;;23.33;40.26;102065.47;5243324;28;20029;-68
2023/06/01 10:42:18;;;;;;;14.77;11.30;;;;;;;23.47;38.00;102066.59;5244182;28;20554;-68
2023/06/01 10:44:49;;;;;;;15.82;10.13;;;;;;;24.92;38.33;102061.22;5244347;28;20064;-68
2023/06/01 10:47:21;;;;;;;16.92;10.93;;;;;;;25.24;34.25;102064.81;5244509;28;20026;-68
2023/06/01 10:49:58;;;;;;;20.17;10.33;;;;;;;25.24;36.38;102066.63;5244284;28;20025;-67
2023/06/01 10:52:40;;;;;;;17.33;10.52;;;;;;;25.71;35.28;102068.47;5244618;28;20049;-68
2023/06/01 10:55:13;;;;;;;17.20;10.88;;;;;;;25.67;34.41;102061.59;5244378;28;20029;-68
2023/06/01 10:57:45;;;;;;;14.10;11.45;;;;;;;25.75;34.07;102066.53;5244344;28;20029;-68
2023/06/01 11:00:22;;;;;;;15.85;12.18;;;;;;;24.61;35.01;102065.50;5244278;28;20079;-66
2023/06/01 11:02:56;;;;;;;14.45;11.20;;;;;;;25.35;34.56;102061.59;5244283;28;20160;-68
2023/06/01 11:05:48;;;;;;;15.05;11.00;;;;;;;26.66;33.87;102069.28;5244171;28;20401;-68
2023/06/01 11:08:22;;;;;;;18.05;11.88;;;;;;;25.69;32.86;102059.69;5244114;28;20072;-68
2023/06/01 11:11:03;;;;;;;14.98;10.73;;;;;;;25.39;34.94;102060.50;5243655;28;20372;-69
2023/06/01 11:13:37;;;;;;;15.75;11.10;;;;;;;25.43;33.43;102058.50;5243863;28;20036;-69
2023/06/01 11:16:14;;;;;;;21.33;11.05;;;;;;;25.95;33.49;102044.88;5243687;28;20124;-68
2023/06/01 11:18:58;;;;;;;16.10;11.48;;;;;;;25.95;33.51;102052.00;5244023;28;20029;-67
2023/06/01 11:21:40;;;;;;;16.38;11.90;;;;;;;26.31;33.96;102049.03;5243907;28;20037;-68
2023/06/01 11:24:16;;;;;;;14.18;12.07;;;;;;;26.10;32.35;102051.16;5243764;28;20345;-69
2023/06/01 11:26:49;;;;;;;15.52;11.43;;;;;;;25.82;33.16;102041.16;5244136;28;20116;-67
2023/06/01 11:29:23;;;;;;;15.52;12.20;;;;;;;26.14;33.49;102044.66;5243654;28;20037;-68
2023/06/01 11:31:57;;;;;;;14.77;11.45;;;;;;;27.25;32.25;102037.09;5243367;28;20117;-68
2023/06/01 11:34:33;;;;;;;15.60;10.85;;;;;;;27.41;32.76;102034.31;5243388;28;20100;-68
2023/06/01 11:37:12;;;;;;;15.55;11.00;;;;;;;27.86;31.22;102040.31;5242213;28;20021;-69